Time;durP1;ratioP1;P1;durP2;ratioP2;P2;SDS_P1;SDS_P2;PMS_P1;PMS_P2;Temp;Humidity;BMP_temperature;BMP_pressure;BME280_temperature;BME280_humidity;BME280_pressure;Samples;Min_cycle;Max_cycle;Signal;HPM_P1;HPM_P2
2022/06/17 00:01:55;;;;;;;5.82;2.22;;;;;;;15.72;100.00;97303.50;5045914;28;20087;-72
2022/06/17 00:04:20;;;;;;;4.45;1.98;;;;;;;15.67;100.00;97311.56;5042913;28;20036;-72
2022/06/17 00:06:55;;;;;;;4.38;1.73;;;;;;;15.67;100.00;97302.66;5047268;28;20038;-73
2022/06/17 00:09:24;;;;;;;5.35;1.80;;;;;;;15.66;100.00;97314.53;5045637;28;20752;-72
2022/06/17 00:11:49;;;;;;;4.75;2.15;;;;;;;15.67;100.00;97308.06;5049227;28;20071;-72
2022/06/17 00:14:19;;;;;;;4.30;1.95;;;;;;;15.65;100.00;97308.31;5046331;28;20258;-72
2022/06/17 00:16:45;;;;;;;3.65;1.80;;;;;;;15.68;100.00;97307.78;5045871;28;20493;-73
2022/06/17 00:19:12;;;;;;;6.10;2.00;;;;;;;15.63;100.00;97310.44;5045208;28;20056;-73
2022/06/17 00:21:41;;;;;;;4.40;1.75;;;;;;;15.40;100.00;97308.91;5047586;28;20087;-72
2022/06/17 00:24:16;;;;;;;5.07;1.95;;;;;;;15.13;100.00;97311.66;5045648;28;20057;-72
2022/06/17 00:26:43;;;;;;;6.57;1.92;;;;;;;14.86;100.00;97310.84;5045774;28;20487;-72
2022/06/17 00:29:17;;;;;;;5.15;1.90;;;;;;;14.97;100.00;97318.00;5047484;28;20850;-73
2022/06/17 00:31:43;;;;;;;3.63;1.67;;;;;;;14.94;100.00;97323.88;5046618;28;20310;-72
2022/06/17 00:34:08;;;;;;;4.75;1.70;;;;;;;15.00;100.00;97317.47;5051990;28;20462;-73
2022/06/17 00:36:34;;;;;;;5.18;1.80;;;;;;;14.82;100.00;97325.94;5049315;28;20090;-72
2022/06/17 00:39:00;;;;;;;5.60;2.10;;;;;;;14.65;100.00;97329.53;5052456;28;20539;-72
2022/06/17 00:41:30;;;;;;;4.28;1.75;;;;;;;14.48;100.00;97334.19;5049586;28;20041;-72
2022/06/17 00:43:58;;;;;;;5.82;2.17;;;;;;;14.27;100.00;97332.28;5050527;28;20470;-72
2022/06/17 00:46:33;;;;;;;5.03;2.08;;;;;;;14.10;100.00;97332.34;5049881;28;20040;-72
2022/06/17 00:49:16;;;;;;;3.55;2.00;;;;;;;14.15;100.00;97325.13;5063995;28;20127;-71
2022/06/17 00:51:46;;;;;;;4.72;2.10;;;;;;;14.25;100.00;97311.00;5050655;28;20448;-72
2022/06/17 00:54:21;;;;;;;4.47;2.13;;;;;;;14.28;100.00;97323.13;5048987;28;20459;-71
2022/06/17 00:56:46;;;;;;;4.93;2.10;;;;;;;14.21;100.00;97321.44;5031383;28;20403;-71
2022/06/17 00:59:13;;;;;;;4.57;2.03;;;;;;;14.34;100.00;97325.66;5064813;28;20086;-72
2022/06/17 01:02:12;;;;;;;3.70;1.83;;;;;;;14.44;100.00;97323.06;5065463;28;20417;-72
2022/06/17 01:04:48;;;;;;;3.65;1.80;;;;;;;14.44;100.00;97319.56;4998033;28;20498;-72
2022/06/17 01:07:19;;;;;;;5.32;1.90;;;;;;;14.47;100.00;97329.84;5049577;28;20124;-73
2022/06/17 01:10:01;;;;;;;3.78;1.90;;;;;;;14.51;100.00;97332.88;5063665;28;20049;-71
2022/06/17 01:12:35;;;;;;;5.45;2.13;;;;;;;14.53;100.00;97336.94;5049651;28;20037;-71
2022/06/17 01:15:03;;;;;;;6.90;2.33;;;;;;;14.54;100.00;97332.34;5051573;28;20083;-71
2022/06/17 01:17:37;;;;;;;6.38;2.00;;;;;;;14.51;100.00;97336.38;5039970;28;20044;-71
2022/06/17 01:20:04;;;;;;;5.75;2.10;;;;;;;14.55;100.00;97332.09;5062709;28;20049;-72
2022/06/17 01:22:38;;;;;;;4.35;1.95;;;;;;;14.54;100.00;97335.84;5037309;28;20924;-72
2022/06/17 01:25:19;;;;;;;4.38;1.90;;;;;;;14.54;100.00;97340.44;5030146;28;20488;-72
2022/06/17 01:27:48;;;;;;;9.33;2.23;;;;;;;14.56;100.00;97331.06;5064255;28;20040;-72
2022/06/17 01:30:28;;;;;;;8.80;2.00;;;;;;;14.64;100.00;97336.00;5062358;28;20291;-71
2022/06/17 01:33:04;;;;;;;7.10;2.17;;;;;;;14.64;100.00;97341.38;5037270;28;20564;-73
2022/06/17 01:35:58;;;;;;;5.50;1.98;;;;;;;14.70;100.00;97339.53;5049034;28;20467;-72
2022/06/17 01:38:24;;;;;;;5.45;1.70;;;;;;;14.66;100.00;97339.22;5038913;28;20036;-72
2022/06/17 01:40:54;;;;;;;8.20;2.50;;;;;;;14.62;100.00;97323.81;5048122;28;20036;-72
2022/06/17 01:43:23;;;;;;;4.57;2.03;;;;;;;14.61;100.00;97320.31;5060850;28;20162;-71
2022/06/17 01:45:54;;;;;;;6.05;2.60;;;;;;;14.63;100.00;97328.13;5065701;28;20057;-71
2022/06/17 01:48:23;;;;;;;4.90;2.38;;;;;;;14.61;100.00;97328.41;5048786;28;20040;-71
2022/06/17 01:50:52;;;;;;;6.03;1.85;;;;;;;14.59;100.00;97337.81;5065323;28;20037;-72
2022/06/17 01:53:24;;;;;;;2.97;1.73;;;;;;;14.60;100.00;97334.84;5045837;28;20090;-71
2022/06/17 01:55:57;;;;;;;6.35;2.10;;;;;;;14.59;100.00;97330.53;5030941;28;20045;-72
2022/06/17 01:58:35;;;;;;;6.40;2.38;;;;;;;14.50;100.00;97337.44;5037488;28;20645;-71
2022/06/17 02:01:04;;;;;;;5.47;1.88;;;;;;;14.40;100.00;97340.00;5031737;28;20064;-72
2022/06/17 02:03:38;;;;;;;5.25;2.22;;;;;;;14.37;100.00;97329.72;5064936;28;20059;-71
2022/06/17 02:06:15;;;;;;;6.65;2.88;;;;;;;14.09;100.00;97323.47;5032683;28;20041;-73
2022/06/17 02:08:41;;;;;;;12.95;2.78;;;;;;;13.68;100.00;97321.25;5048692;28;20037;-72
2022/06/17 02:11:08;;;;;;;6.05;2.28;;;;;;;13.25;100.00;97318.22;5044100;28;20416;-71
2022/06/17 02:13:36;;;;;;;4.97;2.92;;;;;;;13.01;100.00;97322.91;5047733;28;20391;-72
2022/06/17 02:16:21;;;;;;;4.28;2.20;;;;;;;12.92;100.00;97318.13;5063177;28;20033;-71
2022/06/17 02:19:05;;;;;;;3.60;2.10;;;;;;;12.85;100.00;97322.88;5065094;28;20048;-71
2022/06/17 02:21:50;;;;;;;6.75;2.42;;;;;;;12.83;100.00;97315.03;5038800;28;20502;-72
2022/06/17 02:24:17;;;;;;;5.05;2.13;;;;;;;12.79;100.00;97317.41;5034469;28;20037;-72
2022/06/17 02:26:43;;;;;;;4.85;2.15;;;;;;;12.86;100.00;97319.94;5047603;28;20119;-72
2022/06/17 02:29:11;;;;;;;4.90;2.30;;;;;;;12.95;100.00;97305.06;5063810;28;20483;-72
2022/06/17 02:31:42;;;;;;;5.30;2.00;;;;;;;13.07;100.00;97307.66;5048275;28;20093;-72
2022/06/17 02:34:14;;;;;;;9.07;1.85;;;;;;;13.22;100.00;97313.31;5048607;28;20040;-72
2022/06/17 02:36:54;;;;;;;6.50;2.40;;;;;;;13.33;100.00;97319.69;5062273;28;20057;-72
2022/06/17 02:39:20;;;;;;;3.53;1.73;;;;;;;13.45;100.00;97314.19;5063323;28;20116;-72
2022/06/17 02:41:48;;;;;;;6.55;2.10;;;;;;;13.54;100.00;97323.47;5039493;28;20064;-71
2022/06/17 02:44:17;;;;;;;5.40;2.00;;;;;;;13.58;100.00;97322.75;5028337;28;20129;-72
2022/06/17 02:46:44;;;;;;;4.35;2.22;;;;;;;13.56;100.00;97330.25;5046621;28;20054;-71
2022/06/17 02:49:20;;;;;;;3.22;1.67;;;;;;;13.54;100.00;97327.00;5061723;28;20045;-72
2022/06/17 02:51:46;;;;;;;6.70;2.00;;;;;;;13.50;100.00;97328.53;5047198;28;20044;-72
2022/06/17 02:54:35;;;;;;;7.40;1.92;;;;;;;13.56;100.00;97327.56;5045719;28;20037;-72
2022/06/17 02:57:02;;;;;;;4.43;2.00;;;;;;;13.55;100.00;97322.44;5046094;28;20044;-72
2022/06/17 02:59:48;;;;;;;6.25;2.00;;;;;;;13.53;100.00;97328.03;5046924;28;20051;-72
2022/06/17 03:02:31;;;;;;;4.75;2.08;;;;;;;13.53;100.00;97328.03;5063804;28;20045;-72
2022/06/17 03:05:00;;;;;;;6.32;2.00;;;;;;;13.34;100.00;97332.06;5060506;28;20044;-72
2022/06/17 03:07:30;;;;;;;7.90;2.03;;;;;;;13.03;100.00;97334.19;5047090;28;20090;-72
2022/06/17 03:10:26;;;;;;;6.13;2.10;;;;;;;13.18;100.00;97327.47;5059368;28;20097;-72
2022/06/17 03:13:00;;;;;;;3.05;1.80;;;;;;;13.24;100.00;97331.91;5062512;28;20041;-72
2022/06/17 03:15:27;;;;;;;5.28;1.80;;;;;;;13.30;100.00;97336.28;5038938;28;20126;-73
2022/06/17 03:17:53;;;;;;;6.40;2.25;;;;;;;13.36;100.00;97333.44;5066344;28;20047;-71
2022/06/17 03:20:29;;;;;;;3.53;1.75;;;;;;;13.38;100.00;97330.50;5061896;28;20051;-71
2022/06/17 03:23:00;;;;;;;3.95;1.85;;;;;;;13.36;100.00;97329.94;5062656;28;20499;-72
2022/06/17 03:25:42;;;;;;;8.43;2.10;;;;;;;13.34;100.00;97327.50;5044361;28;20037;-72
2022/06/17 03:28:12;;;;;;;7.78;2.28;;;;;;;13.17;100.00;97323.16;5046361;28;20047;-72
2022/06/17 03:30:48;;;;;;;5.60;1.80;;;;;;;13.14;100.00;97326.31;5062326;28;20612;-72
2022/06/17 03:33:22;;;;;;;4.50;2.20;;;;;;;13.01;100.00;97327.44;5062790;28;20033;-71
2022/06/17 03:35:55;;;;;;;5.35;1.98;;;;;;;13.10;100.00;97332.19;5039390;28;20087;-72
2022/06/17 03:38:40;;;;;;;5.53;2.22;;;;;;;13.23;100.00;97335.63;5036770;28;20101;-72
2022/06/17 03:41:16;;;;;;;3.65;1.67;;;;;;;13.37;100.00;97345.00;5062478;28;20048;-71
2022/06/17 03:43:51;;;;;;;7.22;1.85;;;;;;;13.39;100.00;97345.59;5032381;28;20037;-72
2022/06/17 03:46:21;;;;;;;4.38;1.52;;;;;;;13.40;100.00;97352.59;5058060;28;20442;-72
2022/06/17 03:48:54;;;;;;;5.07;1.90;;;;;;;13.38;100.00;97358.22;5047945;28;20029;-72
2022/06/17 03:51:22;;;;;;;5.10;2.13;;;;;;;13.43;100.00;97354.78;5063962;28;20080;-72
2022/06/17 03:53:50;;;;;;;4.32;2.10;;;;;;;13.48;100.00;97360.25;5046585;28;20110;-73
2022/06/17 03:56:27;;;;;;;5.95;2.03;;;;;;;13.53;100.00;97376.44;5036644;28;20453;-72
2022/06/17 03:58:57;;;;;;;3.58;2.03;;;;;;;13.52;100.00;97380.19;5045555;28;20118;-72
2022/06/17 04:01:38;;;;;;;6.93;2.10;;;;;;;13.40;100.00;97384.03;5058447;28;20084;-72
2022/06/17 04:04:32;;;;;;;5.43;1.90;;;;;;;13.30;100.00;97387.34;5062679;28;20184;-72
2022/06/17 04:07:00;;;;;;;11.27;2.20;;;;;;;13.26;100.00;97378.97;5049059;28;20048;-72
2022/06/17 04:09:30;;;;;;;3.72;1.95;;;;;;;13.36;100.00;97383.69;5023554;28;20037;-73
2022/06/17 04:12:04;;;;;;;4.35;2.05;;;;;;;13.34;100.00;97385.81;5051484;28;20037;-73
2022/06/17 04:14:57;;;;;;;3.90;2.10;;;;;;;13.34;100.00;97386.63;5048381;28;20059;-73
2022/06/17 04:17:27;;;;;;;3.30;2.03;;;;;;;13.30;100.00;97385.47;5065973;28;20513;-71
2022/06/17 04:20:24;;;;;;;6.80;2.42;;;;;;;13.37;100.00;97388.00;5052120;28;20476;-71
2022/06/17 04:22:53;;;;;;;5.32;2.25;;;;;;;13.48;100.00;97395.19;5033163;28;20131;-71
2022/06/17 04:25:34;;;;;;;8.90;2.30;;;;;;;13.55;100.00;97400.41;5063929;28;20083;-71
2022/06/17 04:28:06;;;;;;;4.82;2.22;;;;;;;13.54;100.00;97401.44;5048081;28;20078;-71
2022/06/17 04:30:40;;;;;;;7.63;2.40;;;;;;;13.46;100.00;97399.97;5033071;28;20102;-71
2022/06/17 04:33:17;;;;;;;4.03;2.35;;;;;;;13.57;100.00;97406.34;5049005;28;20057;-71
2022/06/17 04:35:43;;;;;;;5.18;2.20;;;;;;;13.52;100.00;97398.19;5036101;28;20729;-71
2022/06/17 04:38:09;;;;;;;5.38;2.20;;;;;;;13.54;100.00;97401.44;5050382;28;20049;-72
2022/06/17 04:40:57;;;;;;;6.10;2.28;;;;;;;13.62;100.00;97395.69;5048950;28;20381;-72
2022/06/17 04:43:40;;;;;;;6.25;2.38;;;;;;;13.74;100.00;97398.28;5048535;28;20287;-71
2022/06/17 04:46:15;;;;;;;4.45;2.00;;;;;;;13.90;100.00;97410.91;5065183;28;20469;-71
2022/06/17 04:48:41;;;;;;;5.88;2.05;;;;;;;13.99;100.00;97395.97;5056642;28;20037;-71
2022/06/17 04:51:08;;;;;;;5.35;1.92;;;;;;;13.98;100.00;97393.53;5039139;28;20388;-72
2022/06/17 04:53:35;;;;;;;4.57;1.90;;;;;;;13.92;100.00;97389.94;5039876;28;20037;-72
2022/06/17 04:56:27;;;;;;;9.13;3.33;;;;;;;14.02;100.00;97381.22;5048720;28;20091;-71
2022/06/17 04:59:18;;;;;;;6.57;2.20;;;;;;;14.16;100.00;97388.69;5039281;28;20523;-71
2022/06/17 05:01:44;;;;;;;5.55;2.35;;;;;;;14.17;100.00;97393.00;5050188;28;20511;-72
2022/06/17 05:04:29;;;;;;;5.45;2.00;;;;;;;14.22;100.00;97386.84;5050461;28;20415;-73
2022/06/17 05:06:59;;;;;;;5.43;2.10;;;;;;;14.39;100.00;97384.09;5066512;28;20049;-73
2022/06/17 05:09:56;;;;;;;6.63;2.10;;;;;;;14.51;100.00;97378.66;5037585;28;20051;-71
2022/06/17 05:12:35;;;;;;;9.38;2.30;;;;;;;14.56;100.00;97386.78;5065476;28;20028;-72
2022/06/17 05:15:09;;;;;;;4.45;2.00;;;;;;;14.56;100.00;97384.91;5050214;28;20118;-72
2022/06/17 05:17:38;;;;;;;4.53;2.00;;;;;;;14.70;100.00;97393.41;5031855;28;20080;-73
2022/06/17 05:20:06;;;;;;;4.80;1.92;;;;;;;14.76;100.00;97397.78;5064901;28;20384;-73
2022/06/17 05:22:34;;;;;;;6.40;1.90;;;;;;;14.92;100.00;97406.84;5029370;28;20441;-72
2022/06/17 05:25:12;;;;;;;5.72;2.03;;;;;;;15.06;100.00;97402.69;5062382;28;20056;-72
2022/06/17 05:27:38;;;;;;;6.55;2.20;;;;;;;15.19;100.00;97396.91;5031589;28;20058;-74
2022/06/17 05:30:04;;;;;;;5.05;2.00;;;;;;;15.16;100.00;97396.59;5063413;28;20049;-73
2022/06/17 05:32:35;;;;;;;7.50;2.00;;;;;;;15.24;100.00;97407.72;5038032;28;20051;-72
2022/06/17 05:35:00;;;;;;;5.10;2.17;;;;;;;15.29;100.00;97405.09;5049397;28;20041;-72
2022/06/17 05:37:26;;;;;;;5.53;1.90;;;;;;;15.34;100.00;97409.72;5046612;28;21154;-72
2022/06/17 05:39:57;;;;;;;4.78;1.80;;;;;;;15.35;100.00;97408.66;5036652;28;20048;-72
2022/06/17 05:42:23;;;;;;;4.18;1.88;;;;;;;15.33;100.00;97406.22;5030978;28;20101;-71
2022/06/17 05:44:49;;;;;;;3.50;1.90;;;;;;;15.37;100.00;97408.38;5060726;28;20612;-73
2022/06/17 05:47:30;;;;;;;5.05;2.17;;;;;;;15.41;100.00;97398.69;5028235;28;20029;-72
2022/06/17 05:50:02;;;;;;;4.15;1.88;;;;;;;15.57;100.00;97403.19;5033623;28;20048;-73
2022/06/17 05:52:54;;;;;;;5.20;2.17;;;;;;;15.62;100.00;97414.03;5047246;28;20108;-73
2022/06/17 05:55:44;;;;;;;4.63;2.20;;;;;;;15.69;100.00;97416.50;5063199;28;20037;-74
2022/06/17 05:58:09;;;;;;;5.05;2.00;;;;;;;15.75;100.00;97410.91;5046430;28;20060;-73
2022/06/17 06:00:36;;;;;;;7.32;2.08;;;;;;;15.77;100.00;97418.72;5035425;28;20129;-73
2022/06/17 06:03:06;;;;;;;8.05;2.05;;;;;;;15.84;100.00;97427.44;5045578;28;20517;-74
2022/06/17 06:05:37;;;;;;;8.68;2.20;;;;;;;15.93;100.00;97441.25;5049928;28;20117;-72
2022/06/17 06:08:07;;;;;;;4.75;1.70;;;;;;;15.94;100.00;97434.78;5066524;28;20048;-72
2022/06/17 06:10:34;;;;;;;4.72;2.00;;;;;;;16.09;100.00;97440.28;5062293;28;20095;-73
2022/06/17 06:13:05;;;;;;;4.10;1.90;;;;;;;16.17;100.00;97429.00;5062344;28;20655;-72
2022/06/17 06:15:43;;;;;;;5.78;1.70;;;;;;;16.26;100.00;97438.22;5064218;28;20037;-74
2022/06/17 06:18:28;;;;;;;4.88;1.77;;;;;;;16.24;100.00;97424.19;5046123;28;20040;-73
2022/06/17 06:20:54;;;;;;;5.45;2.00;;;;;;;16.33;100.00;97427.19;5063980;28;20072;-72
2022/06/17 06:23:21;;;;;;;9.13;2.10;;;;;;;16.37;100.00;97417.50;5046652;28;20064;-73
2022/06/17 06:25:48;;;;;;;6.07;2.00;;;;;;;16.47;100.00;97409.44;5060965;28;20064;-74
2022/06/17 06:28:19;;;;;;;5.40;1.75;;;;;;;16.52;100.00;97414.91;5063586;28;20414;-73
2022/06/17 06:30:51;;;;;;;7.40;2.15;;;;;;;16.73;100.00;97410.44;5036170;28;20488;-72
2022/06/17 06:33:17;;;;;;;;;;;;;;;16.84;100.00;97413.97;5064666;28;20045;-72
2022/06/17 06:35:46;;;;;;;6.95;2.20;;;;;;;16.91;100.00;97414.53;5048101;28;19955;-72
2022/06/17 06:38:12;;;;;;;7.25;1.98;;;;;;;16.94;100.00;97425.63;5032866;28;20056;-73
2022/06/17 06:40:40;;;;;;;6.15;2.08;;;;;;;17.00;100.00;97431.84;5064206;28;20541;-72
2022/06/17 06:43:15;;;;;;;3.58;1.60;;;;;;;16.98;100.00;97428.63;5064101;28;20483;-73
2022/06/17 06:46:03;;;;;;;6.28;1.70;;;;;;;16.93;100.00;97418.59;5046704;28;20102;-73
2022/06/17 06:48:29;;;;;;;4.85;1.80;;;;;;;17.16;100.00;97405.66;5062906;28;20341;-73
2022/06/17 06:50:54;;;;;;;5.15;1.70;;;;;;;17.24;100.00;97410.56;5046833;28;20483;-72
2022/06/17 06:53:21;;;;;;;4.47;1.80;;;;;;;17.14;100.00;97408.66;5066261;28;20044;-73
2022/06/17 06:55:48;;;;;;;6.80;2.30;;;;;;;17.12;100.00;97408.09;5047629;28;20036;-73
2022/06/17 06:58:17;;;;;;;4.90;2.63;;;;;;;17.21;100.00;97417.31;5061863;28;20573;-74
2022/06/17 07:00:50;;;;;;;8.13;2.08;;;;;;;17.40;100.00;97420.31;5029111;28;20269;-73
2022/06/17 07:03:17;;;;;;;4.88;2.22;;;;;;;17.57;100.00;97413.81;5032245;28;20040;-72
2022/06/17 07:05:48;;;;;;;4.10;1.95;;;;;;;17.51;99.02;97403.03;5048039;28;20039;-73
2022/06/17 07:08:15;;;;;;;6.88;2.00;;;;;;;17.77;98.83;97411.16;5048003;28;20171;-73
2022/06/17 07:10:42;;;;;;;3.92;1.88;;;;;;;17.87;97.97;97413.84;5047486;28;20083;-73
2022/06/17 07:13:08;;;;;;;3.72;1.63;;;;;;;17.88;96.46;97410.06;5045107;28;20047;-73
2022/06/17 07:15:41;;;;;;;4.15;2.05;;;;;;;17.95;98.21;97409.78;5048685;28;20394;-72
2022/06/17 07:18:13;;;;;;;4.97;1.70;;;;;;;18.21;99.60;97408.69;5047649;28;20047;-74
2022/06/17 07:20:42;;;;;;;6.43;1.75;;;;;;;18.61;98.30;97412.34;5047397;28;20149;-72
2022/06/17 07:23:13;;;;;;;3.40;1.80;;;;;;;18.64;93.73;97417.22;5046299;28;20044;-72
2022/06/17 07:25:39;;;;;;;5.47;1.77;;;;;;;18.64;91.00;97423.44;5046738;28;20083;-72
2022/06/17 07:28:06;;;;;;;8.25;1.80;;;;;;;18.87;92.52;97432.06;5048200;28;20044;-72
2022/06/17 07:30:32;;;;;;;6.50;1.88;;;;;;;19.11;94.07;97433.03;5044926;28;20348;-73
2022/06/17 07:32:59;;;;;;;8.77;2.03;;;;;;;18.98;91.40;97414.66;5049638;28;20048;-73
2022/06/17 07:35:25;;;;;;;5.35;1.90;;;;;;;19.10;94.28;97417.03;5047817;28;20032;-72
2022/06/17 07:40:35;;;;;;;6.20;1.70;;;;;;;18.64;90.93;97404.47;5046577;28;20779;-72
2022/06/17 07:43:02;;;;;;;5.30;2.17;;;;;;;18.29;90.31;97404.59;5052599;28;20037;-73
2022/06/17 07:45:29;;;;;;;5.65;1.65;;;;;;;18.56;91.73;97399.63;5050406;28;20032;-72
2022/06/17 07:47:56;;;;;;;5.20;1.60;;;;;;;18.67;93.16;97408.53;5050556;28;20079;-71
2022/06/17 07:50:29;;;;;;;7.10;1.80;;;;;;;18.68;92.08;97412.06;5034170;28;20056;-72
2022/06/17 07:52:54;;;;;;;6.90;1.75;;;;;;;18.51;93.28;97405.06;5052649;28;20053;-72
2022/06/17 07:55:21;;;;;;;3.33;1.60;;;;;;;18.25;92.34;97414.34;5052614;28;20037;-71
2022/06/17 07:57:47;;;;;;;3.67;1.60;;;;;;;18.31;93.83;97407.84;5051590;28;20033;-72
2022/06/17 08:00:37;;;;;;;3.58;1.73;;;;;;;18.21;93.64;97407.84;5048172;28;20039;-72
2022/06/17 08:03:04;;;;;;;5.18;1.80;;;;;;;18.02;94.06;97408.44;5038623;28;20164;-74
2022/06/17 08:05:30;;;;;;;5.22;1.60;;;;;;;18.24;95.21;97404.59;5052093;28;20044;-72
2022/06/17 08:07:57;;;;;;;4.82;1.90;;;;;;;18.30;95.24;97395.38;5053327;28;20502;-72
2022/06/17 08:10:27;;;;;;;6.00;1.65;;;;;;;18.39;94.95;97399.16;5041860;28;20035;-72
2022/06/17 08:12:53;;;;;;;4.32;1.90;;;;;;;18.58;95.36;97405.56;5072135;28;20048;-72
2022/06/17 08:15:20;;;;;;;4.65;1.80;;;;;;;18.65;94.83;97402.56;5035859;28;20119;-72
2022/06/17 08:17:46;;;;;;;3.85;1.75;;;;;;;18.82;95.63;97399.53;5038023;28;20051;-72
2022/06/17 08:20:20;;;;;;;5.95;2.17;;;;;;;18.94;96.46;97397.31;5056850;28;20052;-72
2022/06/17 08:22:45;;;;;;;7.20;1.70;;;;;;;18.92;92.15;97391.38;5040671;28;20028;-73
2022/06/17 08:25:12;;;;;;;9.35;1.85;;;;;;;19.02;95.72;97402.16;5058597;28;20042;-72
2022/06/17 08:27:49;;;;;;;8.02;1.90;;;;;;;19.02;98.56;97396.72;5040791;28;20043;-72
2022/06/17 08:30:18;;;;;;;4.95;1.67;;;;;;;19.08;95.05;97395.63;5034004;28;20044;-72
2022/06/17 08:32:47;;;;;;;5.28;1.67;;;;;;;19.13;98.48;97383.91;5051161;28;20078;-72
2022/06/17 08:35:15;;;;;;;4.40;1.88;;;;;;;19.04;96.06;97391.84;5068809;28;20049;-72
2022/06/17 08:37:42;;;;;;;4.72;2.03;;;;;;;19.16;94.71;97405.06;5039939;28;20394;-72
2022/06/17 08:40:27;;;;;;;4.78;1.83;;;;;;;19.33;100.00;97404.69;5041506;28;20037;-72
2022/06/17 08:43:14;;;;;;;6.00;1.90;;;;;;;19.60;95.57;97412.38;5019433;28;20058;-72
2022/06/17 08:46:10;;;;;;;4.68;1.88;;;;;;;19.32;92.39;97422.06;5051441;28;20312;-72
2022/06/17 08:48:55;;;;;;;3.22;1.90;;;;;;;19.35;90.70;97421.50;5036051;28;20033;-72
2022/06/17 08:51:42;;;;;;;4.80;1.70;;;;;;;19.63;100.00;97412.66;5041327;28;20032;-72
2022/06/17 08:54:34;;;;;;;5.68;1.80;;;;;;;19.83;100.00;97416.28;5023355;28;20048;-72
2022/06/17 08:57:34;;;;;;;6.00;2.35;;;;;;;19.93;94.68;97405.34;5043223;28;20477;-72
2022/06/17 09:00:11;;;;;;;5.28;1.52;;;;;;;19.93;84.69;97403.44;5023861;28;20408;-72
2022/06/17 09:02:55;;;;;;;6.28;1.80;;;;;;;20.09;92.16;97414.97;5024332;28;20065;-72
2022/06/17 09:05:37;;;;;;;4.35;1.80;;;;;;;20.28;93.20;97420.47;5034555;28;20052;-72
2022/06/17 09:08:33;;;;;;;3.72;1.83;;;;;;;20.25;90.08;97413.72;5035416;28;20043;-72
2022/06/17 09:11:16;;;;;;;5.30;1.67;;;;;;;20.40;84.93;97414.66;5043876;28;20056;-72
2022/06/17 09:13:57;;;;;;;4.82;1.90;;;;;;;20.46;98.39;97413.50;5052985;28;20120;-72
2022/06/17 09:16:41;;;;;;;3.47;1.80;;;;;;;20.37;83.18;97415.22;5056461;28;20041;-73
2022/06/17 09:19:09;;;;;;;6.50;1.50;;;;;;;20.31;82.93;97409.84;5068407;28;20036;-73
2022/06/17 09:21:46;;;;;;;7.82;1.60;;;;;;;20.54;92.70;97407.44;5051380;28;20040;-72
2022/06/17 09:24:21;;;;;;;3.38;1.30;;;;;;;20.55;89.67;97411.81;5067119;28;20499;-72
2022/06/17 09:27:22;;;;;;;4.68;1.55;;;;;;;20.50;79.46;97401.78;5069064;28;20399;-72
2022/06/17 09:30:02;;;;;;;3.22;1.40;;;;;;;20.61;78.36;97393.50;5013241;28;20139;-72
2022/06/17 09:32:30;;;;;;;2.60;1.20;;;;;;;20.70;75.83;97392.59;5033454;28;20040;-72
2022/06/17 09:35:08;;;;;;;4.95;1.45;;;;;;;21.09;69.68;97405.16;5032168;28;20396;-72
2022/06/17 09:37:48;;;;;;;3.72;1.25;;;;;;;21.06;72.74;97405.72;5032724;28;20072;-72
2022/06/17 09:40:23;;;;;;;6.87;1.50;;;;;;;20.95;75.24;97399.59;5003422;28;20063;-72
2022/06/17 09:43:17;;;;;;;3.05;1.40;;;;;;;21.28;68.70;97386.94;5050172;28;20576;-72
2022/06/17 09:45:56;;;;;;;3.65;1.20;;;;;;;21.19;67.42;97396.84;5031425;28;20125;-72
2022/06/17 09:48:41;;;;;;;3.92;1.55;;;;;;;21.39;72.54;97393.00;5037282;28;20036;-79
2022/06/17 09:51:18;;;;;;;5.05;1.40;;;;;;;21.47;79.13;97400.50;5064873;28;20484;-74
2022/06/17 09:54:03;;;;;;;3.17;1.30;;;;;;;21.51;70.83;97407.00;5017049;28;20587;-73
2022/06/17 09:56:52;;;;;;;2.78;1.40;;;;;;;21.59;64.48;97419.13;5052841;28;20067;-73
2022/06/17 09:59:24;;;;;;;6.38;1.73;;;;;;;21.98;67.62;97414.13;5049164;28;20049;-73
2022/06/17 10:01:52;;;;;;;3.35;1.83;;;;;;;22.04;76.17;97414.84;5015811;28;20168;-73
2022/06/17 10:04:18;;;;;;;3.67;1.30;;;;;;;22.36;64.27;97411.31;5065510;28;20040;-74
2022/06/17 10:07:02;;;;;;;6.18;1.58;;;;;;;22.13;56.66;97404.09;5025741;28;20032;-74
2022/06/17 10:09:31;;;;;;;4.88;1.52;;;;;;;22.04;65.88;97403.94;5033659;28;20492;-73
2022/06/17 10:12:03;;;;;;;3.45;1.25;;;;;;;22.35;57.53;97395.25;5060245;28;20085;-74
2022/06/17 10:14:57;;;;;;;4.15;1.40;;;;;;;22.59;58.37;97398.59;5039507;28;20040;-73
2022/06/17 10:20:56;;;;;;;2.92;1.50;;;;;;;22.83;66.92;97390.19;4984640;28;20048;-73
2022/06/17 10:23:33;;;;;;;3.30;1.40;;;;;;;22.94;65.68;97388.88;5034150;28;20509;-73
2022/06/17 10:26:21;;;;;;;7.05;1.40;;;;;;;23.51;74.26;97381.06;4349142;28;10000003;-73
2022/06/17 10:28:56;;;;;;;4.10;1.40;;;;;;;23.32;67.66;97374.94;5030834;28;20555;-73
2022/06/17 10:31:33;;;;;;;4.28;1.48;;;;;;;22.86;62.88;97378.69;5019724;28;20479;-73
2022/06/17 10:34:03;;;;;;;7.65;1.48;;;;;;;23.30;76.27;97371.72;5049016;28;20049;-73
2022/06/17 10:36:31;;;;;;;3.13;1.30;;;;;;;23.77;66.42;97366.81;5048198;28;20040;-73
2022/06/17 10:38:59;;;;;;;3.15;1.20;;;;;;;23.41;60.29;97372.28;5037033;28;20099;-74
2022/06/17 10:41:25;;;;;;;2.85;1.30;;;;;;;23.30;52.89;97375.25;5043612;28;20380;-73
2022/06/17 10:43:52;;;;;;;6.22;1.50;;;;;;;23.28;57.03;97377.50;5048770;28;20048;-73
2022/06/17 10:46:32;;;;;;;5.43;1.75;;;;;;;23.43;65.58;97368.16;5019164;28;20850;-73
2022/06/17 10:49:21;;;;;;;5.53;1.30;;;;;;;23.30;60.52;97369.81;5036626;28;20044;-73
2022/06/17 10:51:50;;;;;;;4.65;1.30;;;;;;;23.31;52.01;97370.59;5005925;28;20048;-73
2022/06/17 10:54:25;;;;;;;3.72;1.50;;;;;;;23.23;54.77;97376.78;5038745;28;20033;-74
2022/06/17 10:57:05;;;;;;;3.08;1.30;;;;;;;23.52;50.06;97370.94;5014704;28;20041;-73
2022/06/17 10:59:43;;;;;;;3.65;1.30;;;;;;;23.46;49.94;97370.25;5049432;28;20115;-73
2022/06/17 11:02:21;;;;;;;5.57;1.25;;;;;;;23.54;43.21;97360.50;5047659;28;20048;-74
2022/06/17 11:04:52;;;;;;;4.13;1.20;;;;;;;23.67;48.91;97362.41;5016135;28;20368;-74
2022/06/17 11:07:28;;;;;;;3.38;1.05;;;;;;;23.89;42.54;97362.38;5029581;28;20494;-73
2022/06/17 11:10:01;;;;;;;5.22;1.35;;;;;;;24.20;54.10;97375.22;5031549;28;20068;-74
2022/06/17 11:12:38;;;;;;;5.15;1.33;;;;;;;24.70;43.55;97372.25;5053773;28;20037;-74
2022/06/17 11:15:23;;;;;;;5.18;1.23;;;;;;;24.92;41.24;97357.66;5048171;28;20037;-74
2022/06/17 11:17:52;;;;;;;4.68;1.30;;;;;;;25.50;40.56;97356.41;5047915;28;20043;-74
2022/06/17 11:20:23;;;;;;;5.25;1.50;;;;;;;26.43;39.17;97361.25;5027011;28;20558;-74
2022/06/17 11:22:58;;;;;;;3.33;1.20;;;;;;;26.43;37.84;97354.97;5044956;28;20061;-74
2022/06/17 11:25:30;;;;;;;2.90;1.15;;;;;;;26.20;38.44;97352.44;5001104;28;20048;-74
2022/06/17 11:28:13;;;;;;;4.15;1.38;;;;;;;26.82;36.08;97354.59;5065200;28;20056;-73
2022/06/17 11:30:53;;;;;;;3.00;1.50;;;;;;;27.60;36.29;97347.72;5049459;28;20387;-74
2022/06/17 11:33:24;;;;;;;;;;;;;;;28.24;34.91;97350.00;5028081;28;20059;-74
2022/06/17 11:36:06;;;;;;;2.55;1.15;;;;;;;28.02;34.53;97337.47;5063719;28;19920;-74
2022/06/17 11:38:34;;;;;;;5.85;1.45;;;;;;;29.46;31.62;97340.88;5031057;28;20040;-74
2022/06/17 11:41:01;;;;;;;3.42;1.27;;;;;;;30.21;29.77;97335.50;5063056;28;20041;-74
2022/06/17 11:43:47;;;;;;;2.58;1.20;;;;;;;30.77;28.09;97321.50;5048729;28;20037;-74
2022/06/17 11:46:23;;;;;;;2.85;1.10;;;;;;;31.82;26.34;97335.22;5061915;28;20109;-74
2022/06/17 11:48:57;;;;;;;4.18;1.40;;;;;;;31.98;24.46;97326.00;5033259;28;20045;-74
2022/06/17 11:51:39;;;;;;;2.45;1.17;;;;;;;33.93;23.52;97322.63;5043305;28;20035;-74
2022/06/17 11:54:18;;;;;;;3.15;1.00;;;;;;;34.06;24.88;97331.44;5036143;28;20047;-74
2022/06/17 11:56:48;;;;;;;3.88;1.38;;;;;;;34.62;22.82;97311.72;5064822;28;20036;-74
2022/06/17 11:59:21;;;;;;;3.83;1.10;;;;;;;35.16;22.07;97307.31;5049295;28;20036;-74
2022/06/17 12:01:53;;;;;;;4.00;1.38;;;;;;;35.43;21.29;97307.91;5055563;28;20072;-74
2022/06/17 12:04:37;;;;;;;2.97;1.25;;;;;;;36.11;20.25;97310.91;5056699;28;20593;-74
2022/06/17 12:07:22;;;;;;;4.72;1.15;;;;;;;34.02;21.70;97295.34;5033206;28;20273;-74